»·PEaware :: N969DA KBFI-WA09

N969DA :: KBFI-WA09

FLIGHT INFORMATION

Flight Status: Arrived
Operator: Privately registered:
United States
More flights under this callsign
Pilot: Anonymous 20880 (20880)
Aircraft: Unknown
(DA62)
More flights by this aircraft type
Origin: KBFI Boeing Field/King Co Intl
United States
Destination: WA09 Roche Harbor
United States
More flights between these airports :: More routes between these airports
Route:
File this flight plan on PilotEdge
Remarks:
Altitude:
(Current/Filed)
3,000ft
Speed:
(Current/Filed)
140kts
Departed: 14-Dec-18 10:54 PM
Arrived: 14-Dec-18 11:32 PM
Distance/Time
Traveled:
73nm/0:38
Distance/Time
To Go:
Arrived

Flight Plot

Page will automatically refresh every two minutes.

Flight plan parsing failed; only flown route is shown


Map Options




Map Legend


Flown Route
Filed Route
Departure Airport
Arrival Airport
Navaid (VOR, NDB)
Fix

Horizontal Profiles

Position Reports

Time Latitude Longitude Heading Altitude Ground
Speed
14-Dec-18 22:45 47.519356 -122.296371 179 14ft 0kts
14-Dec-18 22:46 47.519356 -122.296371 179 14ft 0kts
14-Dec-18 22:47 47.519399 -122.296245 12 14ft 5kts
14-Dec-18 22:49 47.524461 -122.299286 325 14ft 32kts
14-Dec-18 22:49 47.531119 -122.304966 328 14ft 34kts
14-Dec-18 22:50 47.539339 -122.311892 328 16ft 22kts
14-Dec-18 22:51 47.539920 -122.312397 330 17ft 0kts
14-Dec-18 22:52 47.541697 -122.313868 338 17ft 28kts
14-Dec-18 22:53 47.533287 -122.304880 150 122ft 90kts
14-Dec-18 22:54 47.518003 -122.306831 309 858ft 139kts
14-Dec-18 22:55 47.549300 -122.345203 320 1252ft 147kts
14-Dec-18 22:56 47.582850 -122.381719 318 1548ft 151kts
14-Dec-18 22:57 47.618387 -122.416454 330 1585ft 159kts
14-Dec-18 22:58 47.659107 -122.444617 330 1580ft 171kts
14-Dec-18 22:59 47.701327 -122.474855 330 1825ft 170kts
14-Dec-18 23:00 47.743235 -122.504944 334 2043ft 172kts
14-Dec-18 23:01 47.785092 -122.534875 336 2251ft 169kts
14-Dec-18 23:02 47.826006 -122.564194 337 2585ft 157kts
14-Dec-18 23:03 47.864374 -122.591759 337 2925ft 160kts
14-Dec-18 23:04 47.904974 -122.620892 335 2923ft 169kts
14-Dec-18 23:05 47.945501 -122.649811 327 3130ft 168kts
14-Dec-18 23:06 47.979914 -122.674614 319 4025ft 146kts
14-Dec-18 23:07 48.004479 -122.692542 320 4744ft 129kts
14-Dec-18 23:08 48.028565 -122.710531 316 5004ft 138kts
14-Dec-18 23:09 48.044753 -122.729961 276 4879ft 112kts
14-Dec-18 23:10 48.046688 -122.757568 274 4261ft 100kts
14-Dec-18 23:11 48.051354 -122.791702 275 3372ft 94kts
14-Dec-18 23:12 48.064952 -122.820476 341 3221ft 143kts
14-Dec-18 23:13 48.101604 -122.784646 35 3210ft 182kts
14-Dec-18 23:14 48.140639 -122.752058 333 3184ft 152kts
14-Dec-18 23:15 48.169371 -122.788789 306 3203ft 137kts
14-Dec-18 23:16 48.199010 -122.823773 312 3193ft 136kts
14-Dec-18 23:17 48.231664 -122.850589 321 3479ft 128kts
14-Dec-18 23:18 48.264430 -122.875338 320 3492ft 136kts
14-Dec-18 23:19 48.293938 -122.897518 321 3494ft 136kts
14-Dec-18 23:20 48.323499 -122.919773 324 3514ft 132kts
14-Dec-18 23:21 48.354952 -122.943559 329 3509ft 131kts
14-Dec-18 23:22 48.385341 -122.966444 332 3507ft 131kts
14-Dec-18 23:23 48.414202 -122.988206 333 3504ft 133kts
14-Dec-18 23:24 48.444186 -123.010860 333 3502ft 136kts
14-Dec-18 23:25 48.477226 -123.035890 333 3305ft 128kts
14-Dec-18 23:26 48.508291 -123.059465 333 2712ft 133kts
14-Dec-18 23:27 48.541729 -123.084872 333 2117ft 131kts
14-Dec-18 23:28 48.570548 -123.106806 333 1493ft 119kts
14-Dec-18 23:29 48.590460 -123.105639 80 1291ft 97kts
14-Dec-18 23:30 48.611723 -123.101249 282 808ft 95kts
14-Dec-18 23:31 48.611434 -123.135409 319 124ft 6kts
14-Dec-18 23:32 48.612642 -123.138838 253 118ft 11kts
14-Dec-18 23:33 48.612087 -123.139200 181 114ft 0kts
14-Dec-18 23:34 48.612087 -123.139200 181 114ft 0kts
14-Dec-18 23:35 48.612087 -123.139200 181 114ft 0kts
14-Dec-18 23:36 48.612087 -123.139200 181 114ft 0kts
14-Dec-18 23:37 48.612087 -123.139200 181 114ft 0kts
14-Dec-18 23:38 48.612087 -123.139200 181 114ft 0kts
14-Dec-18 23:39 48.612087 -123.139200 181 114ft 0kts

Navigation Log

Ident Type
Flight plan parsing failed, navigation log unavailable